Time;durP1;ratioP1;P1;durP2;ratioP2;P2;SDS_P1;SDS_P2;PMS_P1;PMS_P2;Temp;Humidity;BMP_temperature;BMP_pressure;BME280_temperature;BME280_humidity;BME280_pressure;Samples;Min_cycle;Max_cycle;Signal;HPM_P1;HPM_P2
2022/04/12 00:00:35;;;;;;;;;;;;;;;;;;5116196;28;20260;-76
2022/04/12 00:03:01;;;;;;;;;;;;;;;;;;5115912;28;19916;-74
2022/04/12 00:05:26;;;;;;;;;;;;;;;;;;5115729;28;19916;-75
2022/04/12 00:07:51;;;;;;;;;;;;;;;;;;5115772;28;19923;-75
2022/04/12 00:10:17;;;;;;;;;;;;;;;;;;5115623;28;19919;-75
2022/04/12 00:12:43;;;;;;;;;;;;;;;;;;5115685;28;20314;-75
2022/04/12 00:15:09;;;;;;;;;;;;;;;;;;5115527;28;20285;-75
2022/04/12 00:20:20;;;;;;;;;;;;;;;;;;5115919;28;19922;-76
2022/04/12 00:22:46;;;;;;;;;;;;;;;;;;5118902;27;20434;-76
2022/04/12 00:25:12;;;;;;;;;;;;;;;;;;5136677;27;19922;-75
2022/04/12 00:27:38;;;;;;;;;;;;;;;;;;5135952;27;20006;-76
2022/04/12 00:30:04;;;;;;;;;;;;;;;;;;5135929;27;20278;-76
2022/04/12 00:32:30;;;;;;;;;;;;;;;;;;5142378;27;19922;-75
2022/04/12 00:34:55;;;;;;;;;;;;;;;;;;5135839;27;19923;-76
2022/04/12 00:37:21;;;;;;;;;;;;;;;;;;5135941;27;19916;-75
2022/04/12 00:39:46;;;;;;;;;;;;;;;;;;5135528;27;20294;-77
2022/04/12 00:42:11;;;;;;;;;;;;;;;;;;5135505;27;20274;-75
2022/04/12 00:44:37;;;;;;;;;;;;;;;;;;5135710;27;20354;-75
2022/04/12 00:47:02;;;;;;;;;;;;;;;;;;5133539;27;19923;-76
2022/04/12 00:49:28;;;;;;;;;;;;;;;;;;5135504;27;19919;-75
2022/04/12 00:51:54;;;;;;;;;;;;;;;;;;5135590;27;19911;-76
2022/04/12 00:54:21;;;;;;;;;;;;;;;;;;5135093;27;19915;-75
2022/04/12 00:56:48;;;;;;;;;;;;;;;;;;5135828;27;19922;-76
2022/04/12 00:59:13;;;;;;;;;;;;;;;;;;5135294;27;20271;-75
2022/04/12 01:01:39;;;;;;;;;;;;;;;;;;5135403;27;19916;-75
2022/04/12 01:04:04;;;;;;;;;;;;;;;;;;5135206;27;19922;-76
2022/04/12 01:06:30;;;;;;;;;;;;;;;;;;5135187;27;19965;-75
2022/04/12 01:08:55;;;;;;;;;;;;;;;;;;5135487;27;19922;-75
2022/04/12 01:11:21;;;;;;;;;;;;;;;;;;5135100;27;20393;-75
2022/04/12 01:13:46;;;;;;;;;;;;;;;;;;5135127;27;19915;-75
2022/04/12 01:16:12;;;;;;;;;;;;;;;;;;5134904;27;19954;-74
2022/04/12 01:18:38;;;;;;;;;;;;;;;;;;5134741;27;19916;-76
2022/04/12 01:21:03;;;;;;;;;;;;;;;;;;5134951;27;19915;-76
2022/04/12 01:23:40;;;;;;;;;;;;;;;;;;5134956;27;19938;-75
2022/04/12 01:26:06;;;;;;;;;;;;;;;;;;5133711;27;19915;-75
2022/04/12 01:28:31;;;;;;;;;;;;;;;;;;5134944;27;19976;-75
2022/04/12 01:30:57;;;;;;;;;;;;;;;;;;5134833;27;20283;-75
2022/04/12 01:33:22;;;;;;;;;;;;;;;;;;5134931;27;19939;-75
2022/04/12 01:35:48;;;;;;;;;;;;;;;;;;5134660;27;19916;-74
2022/04/12 01:38:13;;;;;;;;;;;;;;;;;;5133326;28;19976;-75
2022/04/12 01:40:38;;;;;;;;;;;;;;;;;;5134952;28;19915;-75
2022/04/12 01:43:04;;;;;;;;;;;;;;;;;;5134749;28;19968;-76
2022/04/12 01:45:30;;;;;;;;;;;;;;;;;;5134834;27;19915;-76
2022/04/12 01:47:58;;;;;;;;;;;;;;;;;;5134625;28;20018;-76
2022/04/12 01:50:23;;;;;;;;;;;;;;;;;;5134611;28;20286;-75
2022/04/12 01:52:49;;;;;;;;;;;;;;;;;;5134649;28;19915;-76
2022/04/12 01:55:14;;;;;;;;;;;;;;;;;;5134734;27;20045;-75
2022/04/12 01:57:40;;;;;;;;;;;;;;;;;;5137079;27;19978;-75
2022/04/12 02:00:07;;;;;;;;;;;;;;;;;;5138686;27;19912;-76
2022/04/12 02:02:32;;;;;;;;;;;;;;;;;;5138755;27;19961;-75
2022/04/12 02:04:58;;;;;;;;;;;;;;;;;;5138639;27;19943;-76
2022/04/12 02:07:23;;;;;;;;;;;;;;;;;;5138785;27;19920;-75
2022/04/12 02:09:49;;;;;;;;;;;;;;;;;;5138631;27;20425;-76
2022/04/12 02:12:14;;;;;;;;;;;;;;;;;;5138659;27;19911;-76
2022/04/12 02:14:39;;;;;;;;;;;;;;;;;;5138554;27;20427;-76
2022/04/12 02:17:05;;;;;;;;;;;;;;;;;;5138378;27;19916;-76
2022/04/12 02:19:30;;;;;;;;;;;;;;;;;;5138479;27;19926;-75
2022/04/12 02:21:56;;;;;;;;;;;;;;;;;;5138329;27;20002;-76
2022/04/12 02:24:21;;;;;;;;;;;;;;;;;;5138212;27;19916;-74
2022/04/12 02:26:47;;;;;;;;;;;;;;;;;;5138430;27;19975;-75
2022/04/12 02:29:13;;;;;;;;;;;;;;;;;;5138309;27;19961;-75
2022/04/12 02:31:39;;;;;;;;;;;;;;;;;;5138182;27;19916;-76
2022/04/12 02:34:05;;;;;;;;;;;;;;;;;;5138089;27;19916;-75
2022/04/12 02:36:30;;;;;;;;;;;;;;;;;;5137956;27;19927;-75
2022/04/12 02:38:55;;;;;;;;;;;;;;;;;;5138194;27;19919;-75
2022/04/12 02:41:21;;;;;;;;;;;;;;;;;;5138167;27;19990;-74
2022/04/12 02:43:46;;;;;;;;;;;;;;;;;;5137941;27;20010;-76
2022/04/12 02:46:12;;;;;;;;;;;;;;;;;;5137846;27;19922;-74
2022/04/12 02:48:37;;;;;;;;;;;;;;;;;;5137900;27;19912;-75
2022/04/12 02:51:02;;;;;;;;;;;;;;;;;;5137787;27;19938;-76
2022/04/12 02:53:28;;;;;;;;;;;;;;;;;;5137771;27;19922;-75
2022/04/12 02:55:53;;;;;;;;;;;;;;;;;;5137703;27;19922;-75
2022/04/12 02:58:19;;;;;;;;;;;;;;;;;;5137655;27;19959;-76
2022/04/12 03:00:44;;;;;;;;;;;;;;;;;;5137697;27;20015;-76
2022/04/12 03:03:10;;;;;;;;;;;;;;;;;;5137657;27;20018;-76
2022/04/12 03:05:35;;;;;;;;;;;;;;;;;;5137639;27;19920;-77
2022/04/12 03:08:01;;;;;;;;;;;;;;;;;;5137213;27;19962;-75
2022/04/12 03:10:27;;;;;;;;;;;;;;;;;;5136981;27;19915;-75
2022/04/12 03:12:52;;;;;;;;;;;;;;;;;;5137333;27;19915;-75
2022/04/12 03:15:18;;;;;;;;;;;;;;;;;;5137142;27;19915;-75
2022/04/12 03:17:43;;;;;;;;;;;;;;;;;;5137345;27;19922;-76
2022/04/12 03:20:09;;;;;;;;;;;;;;;;;;5137428;27;20267;-76
2022/04/12 03:22:35;;;;;;;;;;;;;;;;;;5137330;27;19923;-76
2022/04/12 03:25:01;;;;;;;;;;;;;;;;;;5136986;27;19919;-74
2022/04/12 03:27:27;;;;;;;;;;;;;;;;;;5137123;27;20019;-76
2022/04/12 03:29:52;;;;;;;;;;;;;;;;;;5137053;27;19915;-76
2022/04/12 03:32:18;;;;;;;;;;;;;;;;;;5136882;27;19958;-76
2022/04/12 03:34:44;;;;;;;;;;;;;;;;;;5137066;27;19955;-78
2022/04/12 03:37:10;;;;;;;;;;;;;;;;;;5136972;27;19927;-76
2022/04/12 03:39:35;;;;;;;;;;;;;;;;;;5136623;27;19923;-77
2022/04/12 03:42:01;;;;;;;;;;;;;;;;;;5136979;27;19940;-76
2022/04/12 03:44:26;;;;;;;;;;;;;;;;;;5136997;27;20392;-76
2022/04/12 03:46:52;;;;;;;;;;;;;;;;;;5136761;27;19915;-76
2022/04/12 03:49:17;;;;;;;;;;;;;;;;;;5135037;27;20362;-75
2022/04/12 03:51:43;;;;;;;;;;;;;;;;;;5133913;27;19965;-76
2022/04/12 03:54:08;;;;;;;;;;;;;;;;;;5116055;28;19959;-75
2022/04/12 03:56:34;;;;;;;;;;;;;;;;;;5131320;27;19923;-76
2022/04/12 03:58:59;;;;;;;;;;;;;;;;;;5136627;27;19922;-76
2022/04/12 04:01:25;;;;;;;;;;;;;;;;;;5127098;27;19915;-76
2022/04/12 04:03:51;;;;;;;;;;;;;;;;;;5123050;27;19915;-76
2022/04/12 04:06:16;;;;;;;;;;;;;;;;;;5134173;27;20371;-77
2022/04/12 04:08:42;;;;;;;;;;;;;;;;;;5119647;27;19950;-78
2022/04/12 04:11:07;;;;;;;;;;;;;;;;;;5119222;27;19920;-75
2022/04/12 04:13:36;;;;;;;;;;;;;;;;;;5124091;27;19921;-76
2022/04/12 04:16:02;;;;;;;;;;;;;;;;;;5136207;27;19916;-77
2022/04/12 04:18:28;;;;;;;;;;;;;;;;;;5120151;27;19920;-76
2022/04/12 04:20:53;;;;;;;;;;;;;;;;;;5115035;28;20332;-76
2022/04/12 04:23:19;;;;;;;;;;;;;;;;;;5126702;27;20022;-76
2022/04/12 04:25:44;;;;;;;;;;;;;;;;;;5134950;27;19916;-76
2022/04/12 04:28:12;;;;;;;;;;;;;;;;;;5135306;27;19976;-76
2022/04/12 04:30:38;;;;;;;;;;;;;;;;;;5135960;27;20006;-76
2022/04/12 04:33:04;;;;;;;;;;;;;;;;;;5135834;27;19922;-76
2022/04/12 04:35:30;;;;;;;;;;;;;;;;;;5135700;27;19915;-75
2022/04/12 04:37:55;;;;;;;;;;;;;;;;;;5135677;27;19921;-75
2022/04/12 04:40:22;;;;;;;;;;;;;;;;;;5135525;27;19919;-75
2022/04/12 04:42:49;;;;;;;;;;;;;;;;;;5135952;27;19923;-76
2022/04/12 04:45:15;;;;;;;;;;;;;;;;;;5135628;27;19969;-75
2022/04/12 04:47:48;;;;;;;;;;;;;;;;;;5135641;27;20373;-76
2022/04/12 04:50:13;;;;;;;;;;;;;;;;;;5135538;27;19915;-75
2022/04/12 04:52:38;;;;;;;;;;;;;;;;;;5135854;27;19915;-76
2022/04/12 04:55:04;;;;;;;;;;;;;;;;;;5135552;27;19922;-75
2022/04/12 04:57:29;;;;;;;;;;;;;;;;;;5135825;27;20030;-77
2022/04/12 04:59:55;;;;;;;;;;;;;;;;;;5135319;27;19911;-75
2022/04/12 05:02:20;;;;;;;;;;;;;;;;;;5135448;27;20010;-75
2022/04/12 05:04:46;;;;;;;;;;;;;;;;;;5135387;27;20271;-77
2022/04/12 05:07:11;;;;;;;;;;;;;;;;;;5135206;27;19956;-77
2022/04/12 05:09:37;;;;;;;;;;;;;;;;;;5135163;27;19915;-77
2022/04/12 05:12:02;;;;;;;;;;;;;;;;;;5135237;27;19943;-76
2022/04/12 05:14:27;;;;;;;;;;;;;;;;;;5134955;27;19958;-77
2022/04/12 05:16:53;;;;;;;;;;;;;;;;;;5135114;27;19922;-75
2022/04/12 05:19:18;;;;;;;;;;;;;;;;;;5135194;27;19922;-75
2022/04/12 05:21:44;;;;;;;;;;;;;;;;;;5135075;27;19916;-75
2022/04/12 05:24:09;;;;;;;;;;;;;;;;;;5134982;27;20413;-74
2022/04/12 05:26:35;;;;;;;;;;;;;;;;;;5133714;27;20267;-75
2022/04/12 05:29:00;;;;;;;;;;;;;;;;;;5134939;27;19919;-74
2022/04/12 05:31:26;;;;;;;;;;;;;;;;;;5134648;27;20371;-75
2022/04/12 05:33:51;;;;;;;;;;;;;;;;;;5134962;27;20359;-75
2022/04/12 05:36:16;;;;;;;;;;;;;;;;;;5134749;27;20366;-76
2022/04/12 05:38:42;;;;;;;;;;;;;;;;;;5134729;28;20294;-76
2022/04/12 05:41:07;;;;;;;;;;;;;;;;;;5134967;27;20386;-75
2022/04/12 05:43:33;;;;;;;;;;;;;;;;;;5134865;28;19911;-75
2022/04/12 05:45:58;;;;;;;;;;;;;;;;;;5134800;28;19915;-75
2022/04/12 05:48:23;;;;;;;;;;;;;;;;;;5134707;28;19919;-76
2022/04/12 05:50:49;;;;;;;;;;;;;;;;;;5134704;28;19919;-76
2022/04/12 05:53:14;;;;;;;;;;;;;;;;;;5134680;28;19916;-75
2022/04/12 05:55:40;;;;;;;;;;;;;;;;;;5134637;28;19925;-76
2022/04/12 05:58:05;;;;;;;;;;;;;;;;;;5134575;28;19916;-77
2022/04/12 06:00:32;;;;;;;;;;;;;;;;;;5134668;27;19922;-75
2022/04/12 06:02:57;;;;;;;;;;;;;;;;;;5134547;27;19923;-78
2022/04/12 06:05:24;;;;;;;;;;;;;;;;;;5134861;27;19915;-76
2022/04/12 06:07:49;;;;;;;;;;;;;;;;;;5134670;27;19955;-76
2022/04/12 06:10:15;;;;;;;;;;;;;;;;;;5134335;27;19916;-75
2022/04/12 06:12:41;;;;;;;;;;;;;;;;;;5134779;27;19919;-75
2022/04/12 06:15:07;;;;;;;;;;;;;;;;;;5134316;28;19958;-76
2022/04/12 06:17:33;;;;;;;;;;;;;;;;;;5134436;27;19919;-75
2022/04/12 06:20:01;;;;;;;;;;;;;;;;;;5134410;27;19923;-75
2022/04/12 06:22:27;;;;;;;;;;;;;;;;;;5134335;27;19922;-76
2022/04/12 06:24:52;;;;;;;;;;;;;;;;;;5133080;28;19916;-75
2022/04/12 06:27:18;;;;;;;;;;;;;;;;;;5134325;28;20359;-77
2022/04/12 06:29:43;;;;;;;;;;;;;;;;;;5134316;28;20282;-75
2022/04/12 06:32:09;;;;;;;;;;;;;;;;;;5134270;28;20275;-76
2022/04/12 06:34:34;;;;;;;;;;;;;;;;;;5134160;28;19955;-76
2022/04/12 06:37:00;;;;;;;;;;;;;;;;;;5134291;28;20030;-75
2022/04/12 06:39:25;;;;;;;;;;;;;;;;;;5134168;27;19920;-75
2022/04/12 06:41:51;;;;;;;;;;;;;;;;;;5134321;28;20385;-75
2022/04/12 06:44:16;;;;;;;;;;;;;;;;;;5135683;27;20366;-76
2022/04/12 06:46:41;;;;;;;;;;;;;;;;;;5138003;27;19919;-75
2022/04/12 06:49:07;;;;;;;;;;;;;;;;;;5137987;27;19916;-75
2022/04/12 06:51:32;;;;;;;;;;;;;;;;;;5137976;27;20012;-75
2022/04/12 06:53:58;;;;;;;;;;;;;;;;;;5137905;27;20386;-75
2022/04/12 06:56:23;;;;;;;;;;;;;;;;;;5137752;27;19979;-76
2022/04/12 06:58:48;;;;;;;;;;;;;;;;;;5137730;27;19915;-75
2022/04/12 07:01:14;;;;;;;;;;;;;;;;;;5137781;27;19915;-75
2022/04/12 07:03:39;;;;;;;;;;;;;;;;;;5137372;27;19919;-74
2022/04/12 07:06:05;;;;;;;;;;;;;;;;;;5137592;27;19919;-75
2022/04/12 07:08:30;;;;;;;;;;;;;;;;;;5137438;27;19919;-75
2022/04/12 07:10:56;;;;;;;;;;;;;;;;;;5137468;27;19911;-75
2022/04/12 07:13:21;;;;;;;;;;;;;;;;;;5137381;27;19938;-75
2022/04/12 07:15:47;;;;;;;;;;;;;;;;;;5137414;27;19955;-76
2022/04/12 07:18:12;;;;;;;;;;;;;;;;;;5137219;27;19954;-75
2022/04/12 07:20:38;;;;;;;;;;;;;;;;;;5137213;27;19919;-76
2022/04/12 07:23:03;;;;;;;;;;;;;;;;;;5136995;27;19922;-75
2022/04/12 07:25:28;;;;;;;;;;;;;;;;;;5137176;27;19916;-76
2022/04/12 07:27:54;;;;;;;;;;;;;;;;;;5137254;27;19923;-76
2022/04/12 07:30:19;;;;;;;;;;;;;;;;;;5137077;27;19916;-75
2022/04/12 07:32:45;;;;;;;;;;;;;;;;;;5137433;27;19915;-75
2022/04/12 07:35:10;;;;;;;;;;;;;;;;;;5136936;27;19920;-75
2022/04/12 07:37:36;;;;;;;;;;;;;;;;;;5136932;27;19919;-76
2022/04/12 07:40:02;;;;;;;;;;;;;;;;;;5136791;27;20371;-75
2022/04/12 07:42:27;;;;;;;;;;;;;;;;;;5136802;27;19915;-76
2022/04/12 07:44:53;;;;;;;;;;;;;;;;;;5136803;27;20447;-76
2022/04/12 07:47:18;;;;;;;;;;;;;;;;;;5136780;27;19916;-76
2022/04/12 07:49:44;;;;;;;;;;;;;;;;;;5136716;27;19915;-75
2022/04/12 07:52:09;;;;;;;;;;;;;;;;;;5136543;27;19944;-76
2022/04/12 07:54:35;;;;;;;;;;;;;;;;;;5136472;27;19916;-76
2022/04/12 07:57:00;;;;;;;;;;;;;;;;;;5136471;27;19920;-75
2022/04/12 07:59:25;;;;;;;;;;;;;;;;;;5136453;27;19975;-75
2022/04/12 08:01:51;;;;;;;;;;;;;;;;;;5136514;27;19968;-75
2022/04/12 08:04:16;;;;;;;;;;;;;;;;;;5136346;27;20374;-78
2022/04/12 08:06:42;;;;;;;;;;;;;;;;;;5136356;27;20283;-76
2022/04/12 08:09:09;;;;;;;;;;;;;;;;;;5136275;27;19916;-76
2022/04/12 08:11:35;;;;;;;;;;;;;;;;;;5136287;27;20321;-76
2022/04/12 08:14:00;;;;;;;;;;;;;;;;;;5136104;27;19924;-77
2022/04/12 08:16:26;;;;;;;;;;;;;;;;;;5136123;27;19919;-76
2022/04/12 08:18:51;;;;;;;;;;;;;;;;;;5136189;27;19950;-77
2022/04/12 08:21:37;;;;;;;;;;;;;;;;;;5136053;27;20427;-75
2022/04/12 08:24:03;;;;;;;;;;;;;;;;;;5135559;27;20286;-76
2022/04/12 08:26:28;;;;;;;;;;;;;;;;;;5135837;27;19916;-76
2022/04/12 08:28:54;;;;;;;;;;;;;;;;;;5136326;27;20013;-76
2022/04/12 08:31:20;;;;;;;;;;;;;;;;;;5135903;27;20372;-76
2022/04/12 08:33:45;;;;;;;;;;;;;;;;;;5135533;27;20013;-77
2022/04/12 08:36:11;;;;;;;;;;;;;;;;;;5135644;27;20331;-76
2022/04/12 08:38:36;;;;;;;;;;;;;;;;;;5134633;27;19930;-76
2022/04/12 08:41:01;;;;;;;;;;;;;;;;;;5136865;27;19916;-76
2022/04/12 08:43:29;;;;;;;;;;;;;;;;;;5134136;27;19918;-76
2022/04/12 08:45:54;;;;;;;;;;;;;;;;;;5132734;27;19915;-76
2022/04/12 08:48:20;;;;;;;;;;;;;;;;;;5135022;27;19922;-77
2022/04/12 08:50:46;;;;;;;;;;;;;;;;;;5135572;27;20279;-76
2022/04/12 08:53:12;;;;;;;;;;;;;;;;;;5135683;27;19919;-77
2022/04/12 08:55:39;;;;;;;;;;;;;;;;;;5134061;27;19915;-75
2022/04/12 08:58:04;;;;;;;;;;;;;;;;;;5135450;27;19916;-77
2022/04/12 09:00:29;;;;;;;;;;;;;;;;;;5135267;27;20271;-75
2022/04/12 09:02:59;;;;;;;;;;;;;;;;;;5135228;27;20389;-77
2022/04/12 09:05:25;;;;;;;;;;;;;;;;;;5135545;27;19916;-75
2022/04/12 09:07:50;;;;;;;;;;;;;;;;;;5134772;27;19920;-77
2022/04/12 09:10:16;;;;;;;;;;;;;;;;;;5135106;27;20264;-75
2022/04/12 09:12:42;;;;;;;;;;;;;;;;;;5135122;27;19958;-75
2022/04/12 09:15:11;;;;;;;;;;;;;;;;;;5135105;27;19962;-75
2022/04/12 09:17:39;;;;;;;;;;;;;;;;;;5135035;27;20268;-78
2022/04/12 09:20:10;;;;;;;;;;;;;;;;;;5134074;27;20266;-77
2022/04/12 09:22:35;;;;;;;;;;;;;;;;;;5135066;27;19975;-75
2022/04/12 09:25:03;;;;;;;;;;;;;;;;;;5134989;27;19920;-77
2022/04/12 09:27:29;;;;;;;;;;;;;;;;;;5134893;27;19912;-76
2022/04/12 09:29:59;;;;;;;;;;;;;;;;;;5134899;27;19919;-76
2022/04/12 09:32:27;;;;;;;;;;;;;;;;;;5134833;27;19922;-77
2022/04/12 09:34:53;;;;;;;;;;;;;;;;;;5134762;27;20397;-77
2022/04/12 09:37:20;;;;;;;;;;;;;;;;;;5133528;27;20420;-77
2022/04/12 09:40:06;;;;;;;;;;;;;;;;;;5134647;27;19925;-77
2022/04/12 09:42:50;;;;;;;;;;;;;;;;;;5134150;28;19994;-76
2022/04/12 09:45:23;;;;;;;;;;;;;;;;;;5134787;27;19915;-76
2022/04/12 09:47:49;;;;;;;;;;;;;;;;;;5134749;27;20406;-75
2022/04/12 09:50:15;;;;;;;;;;;;;;;;;;5134640;27;19916;-76
2022/04/12 09:52:51;;;;;;;;;;;;;;;;;;5134710;27;19922;-76
2022/04/12 09:55:31;;;;;;;;;;;;;;;;;;5134639;27;19915;-76
2022/04/12 09:57:57;;;;;;;;;;;;;;;;;;5134636;27;19954;-76
2022/04/12 10:00:22;;;;;;;;;;;;;;;;;;5134554;27;19939;-75
2022/04/12 10:02:48;;;;;;;;;;;;;;;;;;5133303;28;19940;-77
2022/04/12 10:05:13;;;;;;;;;;;;;;;;;;5134579;27;19919;-78
2022/04/12 10:07:39;;;;;;;;;;;;;;;;;;5134602;27;19920;-78
2022/04/12 10:10:05;;;;;;;;;;;;;;;;;;5134675;27;20375;-77
2022/04/12 10:12:31;;;;;;;;;;;;;;;;;;5134410;27;19979;-76
2022/04/12 10:14:56;;;;;;;;;;;;;;;;;;5134709;27;19915;-76
2022/04/12 10:17:23;;;;;;;;;;;;;;;;;;5134716;27;19923;-77
2022/04/12 10:19:48;;;;;;;;;;;;;;;;;;5136986;27;19923;-75
2022/04/12 10:22:14;;;;;;;;;;;;;;;;;;5138287;27;19915;-75
2022/04/12 10:24:39;;;;;;;;;;;;;;;;;;5138499;27;19915;-76
2022/04/12 10:27:06;;;;;;;;;;;;;;;;;;5138479;27;20000;-77
2022/04/12 10:29:31;;;;;;;;;;;;;;;;;;5138246;27;19919;-77
2022/04/12 10:31:58;;;;;;;;;;;;;;;;;;5138145;27;19916;-78
2022/04/12 10:34:23;;;;;;;;;;;;;;;;;;5137976;27;19922;-77
2022/04/12 10:36:55;;;;;;;;;;;;;;;;;;5138154;27;19915;-76
2022/04/12 10:39:21;;;;;;;;;;;;;;;;;;5137979;27;20334;-77
2022/04/12 10:41:49;;;;;;;;;;;;;;;;;;5137984;27;19922;-76
2022/04/12 10:44:20;;;;;;;;;;;;;;;;;;5137928;27;19968;-76
2022/04/12 10:46:50;;;;;;;;;;;;;;;;;;5137695;27;19915;-77
2022/04/12 10:49:19;;;;;;;;;;;;;;;;;;5136468;27;20010;-76
2022/04/12 10:51:46;;;;;;;;;;;;;;;;;;5136317;27;20306;-76
2022/04/12 10:54:30;;;;;;;;;;;;;;;;;;5137545;27;19915;-76
2022/04/12 10:57:26;;;;;;;;;;;;;;;;;;5137662;27;20011;-77
2022/04/12 11:00:04;;;;;;;;;;;;;;;;;;5120202;27;20294;-77
2022/04/12 11:02:30;;;;;;;;;;;;;;;;;;5137240;27;20380;-76
2022/04/12 11:04:56;;;;;;;;;;;;;;;;;;5137872;27;20026;-75
2022/04/12 11:07:32;;;;;;;;;;;;;;;;;;5137409;27;19959;-76
2022/04/12 11:10:07;;;;;;;;;;;;;;;;;;5137397;27;19960;-77
2022/04/12 11:12:45;;;;;;;;;;;;;;;;;;5137495;27;19962;-76
2022/04/12 11:15:20;;;;;;;;;;;;;;;;;;5137258;27;19915;-76
2022/04/12 11:17:46;;;;;;;;;;;;;;;;;;5137382;27;19922;-77
2022/04/12 11:20:19;;;;;;;;;;;;;;;;;;5137205;27;20353;-75
2022/04/12 11:22:54;;;;;;;;;;;;;;;;;;5137441;27;20006;-76
2022/04/12 11:25:21;;;;;;;;;;;;;;;;;;5137339;27;20003;-75
2022/04/12 11:27:54;;;;;;;;;;;;;;;;;;5137015;27;19922;-76
2022/04/12 11:30:20;;;;;;;;;;;;;;;;;;5136245;27;19911;-77
2022/04/12 11:32:45;;;;;;;;;;;;;;;;;;5137073;27;19937;-76
2022/04/12 11:35:10;;;;;;;;;;;;;;;;;;5137025;27;19920;-75
2022/04/12 11:37:39;;;;;;;;;;;;;;;;;;5137012;27;19919;-75
2022/04/12 11:40:05;;;;;;;;;;;;;;;;;;5136880;27;19919;-76
2022/04/12 11:42:30;;;;;;;;;;;;;;;;;;5136771;27;19956;-76
2022/04/12 11:44:57;;;;;;;;;;;;;;;;;;5136718;27;20390;-75
2022/04/12 11:47:33;;;;;;;;;;;;;;;;;;5136690;27;20367;-76
2022/04/12 11:49:59;;;;;;;;;;;;;;;;;;5136586;27;19922;-77
2022/04/12 11:52:25;;;;;;;;;;;;;;;;;;5138023;27;20006;-76
2022/04/12 11:54:51;;;;;;;;;;;;;;;;;;5136298;27;20018;-76
2022/04/12 11:57:20;;;;;;;;;;;;;;;;;;5136744;27;20007;-76
2022/04/12 11:59:47;;;;;;;;;;;;;;;;;;5137574;27;19933;-75
2022/04/12 12:02:13;;;;;;;;;;;;;;;;;;5136859;27;19961;-76
2022/04/12 12:04:52;;;;;;;;;;;;;;;;;;5136440;27;20394;-76
2022/04/12 12:07:18;;;;;;;;;;;;;;;;;;5142229;27;19911;-75
2022/04/12 12:09:56;;;;;;;;;;;;;;;;;;5139786;27;19916;-76
2022/04/12 12:12:30;;;;;;;;;;;;;;;;;;5140037;27;19915;-76
2022/04/12 12:14:55;;;;;;;;;;;;;;;;;;5140150;27;19915;-74
2022/04/12 12:17:21;;;;;;;;;;;;;;;;;;5137054;27;20267;-77
2022/04/12 12:19:47;;;;;;;;;;;;;;;;;;5138077;27;19916;-77
2022/04/12 12:22:13;;;;;;;;;;;;;;;;;;5138087;27;19961;-76
2022/04/12 12:24:49;;;;;;;;;;;;;;;;;;5137805;27;19922;-76
2022/04/12 12:27:14;;;;;;;;;;;;;;;;;;5136899;27;19922;-76
2022/04/12 12:29:42;;;;;;;;;;;;;;;;;;5137822;27;19915;-77
2022/04/12 12:32:08;;;;;;;;;;;;;;;;;;5137494;27;19921;-77
2022/04/12 12:34:34;;;;;;;;;;;;;;;;;;5138778;27;20367;-76
2022/04/12 12:37:08;;;;;;;;;;;;;;;;;;5139936;27;19916;-76
2022/04/12 12:39:41;;;;;;;;;;;;;;;;;;5137594;27;19965;-77
2022/04/12 12:42:07;;;;;;;;;;;;;;;;;;5136368;27;19925;-76
2022/04/12 12:44:36;;;;;;;;;;;;;;;;;;5136004;27;19974;-76
2022/04/12 12:47:04;;;;;;;;;;;;;;;;;;5136632;27;20390;-75
2022/04/12 12:49:37;;;;;;;;;;;;;;;;;;5136755;27;20275;-75
2022/04/12 12:52:09;;;;;;;;;;;;;;;;;;5137078;27;21312;-75
2022/04/12 12:54:35;;;;;;;;;;;;;;;;;;5134464;27;19938;-76
2022/04/12 12:57:01;;;;;;;;;;;;;;;;;;5125388;27;20489;-75
2022/04/12 12:59:29;;;;;;;;;;;;;;;;;;5129680;27;19922;-76
2022/04/12 13:01:56;;;;;;;;;;;;;;;;;;5137362;27;19918;-76
2022/04/12 13:04:23;;;;;;;;;;;;;;;;;;5137170;27;19923;-76
2022/04/12 13:06:59;;;;;;;;;;;;;;;;;;5137376;27;20015;-75
2022/04/12 13:09:24;;;;;;;;;;;;;;;;;;5137693;27;19960;-74
2022/04/12 13:11:50;;;;;;;;;;;;;;;;;;5137268;27;20548;-75
2022/04/12 13:14:15;;;;;;;;;;;;;;;;;;5136469;27;19915;-76
2022/04/12 13:16:40;;;;;;;;;;;;;;;;;;5136678;27;19926;-73
2022/04/12 13:19:06;;;;;;;;;;;;;;;;;;5136810;27;19912;-74
2022/04/12 13:21:31;;;;;;;;;;;;;;;;;;5136378;27;20015;-75
2022/04/12 13:23:57;;;;;;;;;;;;;;;;;;5136513;27;19916;-75
2022/04/12 13:26:22;;;;;;;;;;;;;;;;;;5136791;27;20359;-76
2022/04/12 13:28:48;;;;;;;;;;;;;;;;;;5133468;27;19915;-75
2022/04/12 13:31:13;;;;;;;;;;;;;;;;;;5134758;27;19912;-77
2022/04/12 13:33:38;;;;;;;;;;;;;;;;;;5134940;27;19943;-77
2022/04/12 13:36:04;;;;;;;;;;;;;;;;;;5136339;27;19966;-75
2022/04/12 13:38:29;;;;;;;;;;;;;;;;;;5137720;27;20272;-76
2022/04/12 13:40:55;;;;;;;;;;;;;;;;;;5136934;28;19926;-76
2022/04/12 13:43:20;;;;;;;;;;;;;;;;;;5136545;28;19926;-76
2022/04/12 13:45:47;;;;;;;;;;;;;;;;;;5135113;28;19918;-75
2022/04/12 13:48:13;;;;;;;;;;;;;;;;;;5137132;27;19923;-75
2022/04/12 13:50:38;;;;;;;;;;;;;;;;;;5136405;28;19912;-76
2022/04/12 13:53:04;;;;;;;;;;;;;;;;;;5137471;27;20359;-76
2022/04/12 13:55:30;;;;;;;;;;;;;;;;;;5140716;27;19915;-76
2022/04/12 13:57:55;;;;;;;;;;;;;;;;;;5144347;27;19919;-75
2022/04/12 14:00:23;;;;;;;;;;;;;;;;;;5139125;27;20014;-75
2022/04/12 14:02:49;;;;;;;;;;;;;;;;;;5142014;27;19915;-77
2022/04/12 14:05:15;;;;;;;;;;;;;;;;;;5140030;27;19916;-77
2022/04/12 14:07:42;;;;;;;;;;;;;;;;;;5139668;27;19919;-76
2022/04/12 14:10:08;;;;;;;;;;;;;;;;;;5138542;27;19919;-77
2022/04/12 14:12:33;;;;;;;;;;;;;;;;;;5138712;27;20264;-76
2022/04/12 14:14:59;;;;;;;;;;;;;;;;;;5138251;27;19920;-77
2022/04/12 14:17:24;;;;;;;;;;;;;;;;;;5139450;27;19916;-76
2022/04/12 14:19:50;;;;;;;;;;;;;;;;;;5136580;27;19924;-78
2022/04/12 14:22:15;;;;;;;;;;;;;;;;;;5126794;27;19922;-78
2022/04/12 14:24:41;;;;;;;;;;;;;;;;;;5137315;27;20371;-77
2022/04/12 14:27:06;;;;;;;;;;;;;;;;;;5137510;27;19911;-75
2022/04/12 14:29:31;;;;;;;;;;;;;;;;;;5137114;27;19916;-77
2022/04/12 14:31:57;;;;;;;;;;;;;;;;;;5137309;27;19915;-75
2022/04/12 14:34:22;;;;;;;;;;;;;;;;;;5136799;27;19916;-77
2022/04/12 14:36:48;;;;;;;;;;;;;;;;;;5137275;27;19915;-76
2022/04/12 14:39:13;;;;;;;;;;;;;;;;;;5136980;27;19919;-77
2022/04/12 14:41:40;;;;;;;;;;;;;;;;;;5137297;27;19930;-77
2022/04/12 14:44:05;;;;;;;;;;;;;;;;;;5137085;27;19923;-77
2022/04/12 14:46:31;;;;;;;;;;;;;;;;;;5137035;27;19919;-77
2022/04/12 14:48:57;;;;;;;;;;;;;;;;;;5136951;27;19916;-77
2022/04/12 14:51:23;;;;;;;;;;;;;;;;;;5136978;27;20371;-76
2022/04/12 14:53:48;;;;;;;;;;;;;;;;;;5136913;27;19926;-75
2022/04/12 14:56:14;;;;;;;;;;;;;;;;;;5136833;27;19915;-75
2022/04/12 14:58:41;;;;;;;;;;;;;;;;;;5136873;27;19920;-78
2022/04/12 15:01:06;;;;;;;;;;;;;;;;;;5137140;27;20228;-75
2022/04/12 15:03:32;;;;;;;;;;;;;;;;;;5136549;27;19930;-78
2022/04/12 15:05:57;;;;;;;;;;;;;;;;;;5135840;27;19915;-79
2022/04/12 15:08:23;;;;;;;;;;;;;;;;;;5136508;27;19916;-78
2022/04/12 15:10:48;;;;;;;;;;;;;;;;;;5136519;27;19977;-78
2022/04/12 15:13:14;;;;;;;;;;;;;;;;;;5136522;27;19975;-78
2022/04/12 15:15:44;;;;;;;;;;;;;;;;;;5136376;27;19919;-79
2022/04/12 15:18:10;;;;;;;;;;;;;;;;;;5136509;27;19955;-77
2022/04/12 15:20:35;;;;;;;;;;;;;;;;;;5136404;27;20406;-78
2022/04/12 15:23:00;;;;;;;;;;;;;;;;;;5136130;27;19967;-78
2022/04/12 15:25:26;;;;;;;;;;;;;;;;;;5136324;27;19915;-77
2022/04/12 15:27:51;;;;;;;;;;;;;;;;;;5136380;27;19971;-78
2022/04/12 15:30:17;;;;;;;;;;;;;;;;;;5136149;27;20375;-78
2022/04/12 15:32:42;;;;;;;;;;;;;;;;;;5136039;27;19922;-75
2022/04/12 15:35:11;;;;;;;;;;;;;;;;;;5136125;27;19915;-77
2022/04/12 15:37:41;;;;;;;;;;;;;;;;;;5136052;27;19955;-76
2022/04/12 15:40:08;;;;;;;;;;;;;;;;;;5135990;27;19926;-77
2022/04/12 15:42:33;;;;;;;;;;;;;;;;;;5135775;27;20003;-78
2022/04/12 15:44:59;;;;;;;;;;;;;;;;;;5134749;27;19947;-77
2022/04/12 15:47:24;;;;;;;;;;;;;;;;;;5135885;27;19958;-75
2022/04/12 15:49:50;;;;;;;;;;;;;;;;;;5135698;27;20322;-75
2022/04/12 15:52:15;;;;;;;;;;;;;;;;;;5135927;27;19968;-75
2022/04/12 15:54:40;;;;;;;;;;;;;;;;;;5135191;27;19923;-78
2022/04/12 15:57:06;;;;;;;;;;;;;;;;;;5136222;27;19922;-73
2022/04/12 15:59:31;;;;;;;;;;;;;;;;;;5136741;27;19923;-77
2022/04/12 16:01:57;;;;;;;;;;;;;;;;;;5136438;27;19919;-76
2022/04/12 16:04:22;;;;;;;;;;;;;;;;;;5136486;27;20371;-77
2022/04/12 16:06:48;;;;;;;;;;;;;;;;;;5136175;27;20383;-77
2022/04/12 16:09:13;;;;;;;;;;;;;;;;;;5136239;27;19940;-75
2022/04/12 16:11:38;;;;;;;;;;;;;;;;;;5135442;27;20014;-75
2022/04/12 16:14:04;;;;;;;;;;;;;;;;;;5135198;27;19912;-76
2022/04/12 16:16:31;;;;;;;;;;;;;;;;;;5135321;27;19915;-76
2022/04/12 16:18:56;;;;;;;;;;;;;;;;;;5135300;27;19915;-74
2022/04/12 16:21:21;;;;;;;;;;;;;;;;;;5135174;27;19922;-76
2022/04/12 16:23:47;;;;;;;;;;;;;;;;;;5134895;27;19960;-74
2022/04/12 16:26:12;;;;;;;;;;;;;;;;;;5135187;27;19977;-76
2022/04/12 16:28:38;;;;;;;;;;;;;;;;;;5135090;27;19919;-75
2022/04/12 16:31:04;;;;;;;;;;;;;;;;;;5134939;27;20346;-75
2022/04/12 16:33:29;;;;;;;;;;;;;;;;;;5134896;27;19930;-76
2022/04/12 16:35:58;;;;;;;;;;;;;;;;;;5134788;27;19919;-74
2022/04/12 16:38:23;;;;;;;;;;;;;;;;;;5134661;27;20429;-76
2022/04/12 16:40:49;;;;;;;;;;;;;;;;;;5134959;27;20006;-75
2022/04/12 16:43:17;;;;;;;;;;;;;;;;;;5134501;27;19915;-77